Time;durP1;ratioP1;P1;durP2;ratioP2;P2;SDS_P1;SDS_P2;PMS_P1;PMS_P2;Temp;Humidity;BMP_temperature;BMP_pressure;BME280_temperature;BME280_humidity;BME280_pressure;Samples;Min_cycle;Max_cycle;Signal;HPM_P1;HPM_P2
2023/07/29 00:02:10;;;;;;;16.55;5.95;;;;;;;16.94;100.00;100589.28;5070585;28;20036;-63
2023/07/29 00:04:35;;;;;;;17.55;6.10;;;;;;;16.94;100.00;100568.78;5067446;28;20029;-63
2023/07/29 00:07:00;;;;;;;18.23;6.20;;;;;;;16.98;100.00;100570.47;5068125;28;20063;-63
2023/07/29 00:09:26;;;;;;;16.98;6.13;;;;;;;17.02;100.00;100566.78;5068230;28;20020;-63
2023/07/29 00:11:51;;;;;;;17.55;6.45;;;;;;;16.93;100.00;100567.03;5068343;28;20112;-63
2023/07/29 00:14:17;;;;;;;17.40;6.20;;;;;;;16.94;100.00;100571.44;5069599;28;20032;-64
2023/07/29 00:16:42;;;;;;;19.65;7.32;;;;;;;16.84;100.00;100569.91;5062856;28;20036;-63
2023/07/29 00:19:08;;;;;;;18.13;6.88;;;;;;;16.72;100.00;100577.31;5067286;28;20075;-63
2023/07/29 00:21:33;;;;;;;18.23;7.28;;;;;;;16.60;100.00;100576.72;5063965;28;20036;-63
2023/07/29 00:24:00;;;;;;;18.17;7.13;;;;;;;16.55;100.00;100574.19;5066000;28;20503;-63
2023/07/29 00:26:28;;;;;;;18.73;7.10;;;;;;;16.59;100.00;100569.66;5065082;28;20499;-63
2023/07/29 00:28:54;;;;;;;18.77;7.30;;;;;;;16.64;100.00;100575.75;5065039;28;20031;-63
2023/07/29 00:31:19;;;;;;;18.10;7.25;;;;;;;16.70;100.00;100581.81;5066037;28;20036;-63
2023/07/29 00:33:45;;;;;;;18.70;7.78;;;;;;;16.78;100.00;100578.09;5063762;28;20029;-63
2023/07/29 00:36:10;;;;;;;18.90;7.28;;;;;;;16.87;100.00;100572.50;5066663;28;20032;-63
2023/07/29 00:38:35;;;;;;;18.48;7.32;;;;;;;16.84;100.00;100573.44;5063658;28;20040;-66
2023/07/29 00:41:03;;;;;;;19.60;7.35;;;;;;;16.84;100.00;100557.44;5065656;28;20032;-65
2023/07/29 00:43:28;;;;;;;18.20;7.50;;;;;;;16.79;100.00;100558.47;5064394;28;20039;-63
2023/07/29 00:45:53;;;;;;;18.05;7.03;;;;;;;16.72;100.00;100560.44;5064934;28;20492;-63
2023/07/29 00:48:19;;;;;;;19.25;7.70;;;;;;;16.69;100.00;100560.50;5065680;28;20468;-63
2023/07/29 00:50:45;;;;;;;17.88;7.20;;;;;;;16.68;100.00;100556.94;5063448;28;20488;-63
2023/07/29 00:53:10;;;;;;;18.95;8.10;;;;;;;16.67;100.00;100548.97;5066649;28;20115;-63
2023/07/29 00:55:36;;;;;;;21.05;8.05;;;;;;;16.61;100.00;100547.34;5063111;28;20064;-64
2023/07/29 00:58:02;;;;;;;19.40;8.23;;;;;;;16.61;100.00;100542.00;5065551;28;20029;-63
2023/07/29 01:00:28;;;;;;;19.27;7.88;;;;;;;16.55;100.00;100544.84;5064188;28;20039;-63
2023/07/29 01:02:54;;;;;;;19.63;8.13;;;;;;;16.55;100.00;100539.50;5064337;28;20384;-63
2023/07/29 01:05:20;;;;;;;19.30;7.50;;;;;;;16.53;100.00;100550.22;5063711;28;20040;-63
2023/07/29 01:08:04;;;;;;;18.60;7.32;;;;;;;16.53;100.00;100541.34;5063388;28;20127;-63
2023/07/29 01:10:47;;;;;;;19.25;7.90;;;;;;;16.53;100.00;100544.00;5064130;28;20376;-63
2023/07/29 01:13:42;;;;;;;18.90;7.78;;;;;;;16.40;100.00;100540.75;5059452;28;20036;-68
2023/07/29 01:16:17;;;;;;;19.20;7.50;;;;;;;16.34;100.00;100551.59;5058974;28;20468;-63
2023/07/29 01:18:47;;;;;;;19.30;8.00;;;;;;;16.26;100.00;100548.22;5059238;28;20025;-63
2023/07/29 01:21:14;;;;;;;19.30;8.50;;;;;;;16.16;100.00;100553.78;5058925;28;20056;-63
2023/07/29 01:23:39;;;;;;;19.35;8.38;;;;;;;16.15;100.00;100545.78;5058539;28;20029;-64
2023/07/29 01:26:04;;;;;;;20.75;9.02;;;;;;;16.26;100.00;100545.56;5065426;28;20449;-63
2023/07/29 01:28:31;;;;;;;19.63;9.00;;;;;;;16.25;100.00;100547.34;5063344;28;20025;-63
2023/07/29 01:31:13;;;;;;;20.08;9.00;;;;;;;16.29;100.00;100550.81;5064348;28;20391;-63
2023/07/29 01:33:56;;;;;;;20.13;8.40;;;;;;;16.25;100.00;100555.34;5058488;28;20028;-63
2023/07/29 01:36:27;;;;;;;19.95;9.48;;;;;;;16.28;100.00;100554.38;5061238;28;20112;-67
2023/07/29 01:38:55;;;;;;;21.55;9.95;;;;;;;16.26;100.00;100557.09;5064367;28;20028;-63
2023/07/29 01:41:21;;;;;;;22.42;10.77;;;;;;;16.22;100.00;100555.41;5063172;28;20127;-63
2023/07/29 01:43:47;;;;;;;21.88;10.05;;;;;;;16.20;100.00;100570.56;5065077;28;20471;-63
2023/07/29 01:46:13;;;;;;;21.27;10.18;;;;;;;16.20;100.00;100570.56;5062113;28;20029;-63
2023/07/29 01:48:39;;;;;;;20.63;9.57;;;;;;;16.24;100.00;100572.25;5057934;28;20033;-66
2023/07/29 01:51:06;;;;;;;21.05;9.70;;;;;;;16.27;100.00;100568.66;5065029;28;20029;-63
2023/07/29 01:53:31;;;;;;;20.13;9.48;;;;;;;16.24;100.00;100561.59;5062614;28;20537;-63
2023/07/29 01:55:57;;;;;;;20.20;8.75;;;;;;;16.28;100.00;100567.72;5044421;28;20033;-62
2023/07/29 01:58:22;;;;;;;21.10;8.60;;;;;;;16.34;100.00;100568.47;5063996;28;20526;-66
2023/07/29 02:00:48;;;;;;;20.13;8.75;;;;;;;16.35;100.00;100564.88;5062295;28;20381;-62
2023/07/29 02:03:13;;;;;;;20.13;8.65;;;;;;;16.37;100.00;100557.72;5065006;28;20173;-76
2023/07/29 02:05:39;;;;;;;19.58;7.50;;;;;;;16.35;100.00;100556.88;5062012;28;20049;-63
2023/07/29 02:08:04;;;;;;;20.70;8.02;;;;;;;16.35;100.00;100554.22;5063328;28;20402;-63
2023/07/29 02:10:30;;;;;;;20.35;8.68;;;;;;;16.35;100.00;100548.88;5062608;28;20070;-63
2023/07/29 02:12:55;;;;;;;19.40;8.10;;;;;;;16.35;100.00;100562.22;5063580;28;20025;-63
2023/07/29 02:15:20;;;;;;;19.63;7.80;;;;;;;16.31;100.00;100552.53;5063876;28;20031;-64
2023/07/29 02:17:45;;;;;;;19.02;7.65;;;;;;;16.28;100.00;100552.63;5061657;28;20380;-63
2023/07/29 02:20:11;;;;;;;19.30;7.50;;;;;;;16.24;100.00;100542.03;5064998;28;20490;-63
2023/07/29 02:22:36;;;;;;;19.15;7.43;;;;;;;16.23;100.00;100535.84;5061472;28;20495;-63
2023/07/29 02:25:02;;;;;;;18.45;6.93;;;;;;;16.20;100.00;100538.56;5064032;28;20031;-63
2023/07/29 02:27:28;;;;;;;17.88;7.20;;;;;;;16.19;100.00;100536.81;5062900;28;20383;-63
2023/07/29 02:29:54;;;;;;;18.13;7.03;;;;;;;16.12;100.00;100530.78;5061277;28;20411;-63
2023/07/29 02:32:20;;;;;;;18.83;6.45;;;;;;;16.06;100.00;100546.00;5064226;28;20078;-63
2023/07/29 02:34:46;;;;;;;18.20;6.90;;;;;;;16.06;100.00;100530.03;5061771;28;20044;-63
2023/07/29 02:37:11;;;;;;;18.35;6.07;;;;;;;16.00;100.00;100537.25;5064364;28;20071;-63
2023/07/29 02:39:37;;;;;;;17.75;6.30;;;;;;;15.96;100.00;100532.00;5060941;28;20039;-63
2023/07/29 02:42:03;;;;;;;16.98;5.75;;;;;;;15.94;100.00;100539.19;5063663;28;20029;-63
2023/07/29 02:44:28;;;;;;;16.95;5.68;;;;;;;15.91;100.00;100532.13;5062405;28;20017;-63
2023/07/29 02:46:55;;;;;;;18.23;5.72;;;;;;;15.90;100.00;100535.72;5062739;28;20036;-62
2023/07/29 02:49:21;;;;;;;16.55;5.80;;;;;;;15.88;100.00;100534.00;5063545;28;20387;-63
2023/07/29 02:51:46;;;;;;;15.10;5.25;;;;;;;15.86;100.00;100534.91;5061625;28;20029;-63
2023/07/29 02:54:12;;;;;;;15.65;5.50;;;;;;;15.86;100.00;100526.91;5064538;28;20069;-63
2023/07/29 02:56:37;;;;;;;16.38;5.60;;;;;;;15.82;100.00;100532.34;5061302;28;20135;-64
2023/07/29 02:59:02;;;;;;;16.30;5.60;;;;;;;15.76;100.00;100530.66;5063497;28;20492;-63
2023/07/29 03:01:28;;;;;;;16.63;5.72;;;;;;;15.78;100.00;100525.28;5062343;28;20037;-62
2023/07/29 03:03:53;;;;;;;18.10;6.20;;;;;;;15.77;100.00;100526.19;5060834;28;20021;-63
2023/07/29 03:06:19;;;;;;;17.95;5.70;;;;;;;15.77;100.00;100523.53;5063474;28;20045;-62
2023/07/29 03:08:44;;;;;;;17.90;6.03;;;;;;;15.75;100.00;100531.56;5060968;28;20025;-64
2023/07/29 03:11:13;;;;;;;18.15;6.20;;;;;;;15.71;100.00;100534.31;5064270;28;20484;-63
2023/07/29 03:13:39;;;;;;;18.20;6.00;;;;;;;15.67;100.00;100523.75;5056521;28;20017;-63
2023/07/29 03:16:15;;;;;;;17.15;6.05;;;;;;;15.65;100.00;100524.69;5063726;28;20086;-62
2023/07/29 03:18:42;;;;;;;18.20;6.82;;;;;;;15.61;100.00;100517.66;5056922;28;20052;-63
2023/07/29 03:21:09;;;;;;;19.23;6.88;;;;;;;15.57;100.00;100529.31;5063829;28;20032;-66
2023/07/29 03:23:34;;;;;;;18.95;6.55;;;;;;;15.55;100.00;100545.28;5061424;28;20033;-63
2023/07/29 03:26:04;;;;;;;18.45;6.53;;;;;;;15.50;100.00;100544.53;5062704;28;20472;-62
2023/07/29 03:28:32;;;;;;;18.58;6.68;;;;;;;15.50;100.00;100548.06;5061921;28;20028;-63
2023/07/29 03:30:57;;;;;;;18.67;6.50;;;;;;;15.50;100.00;100547.19;5062490;28;20083;-63
2023/07/29 03:33:24;;;;;;;18.27;6.85;;;;;;;15.50;100.00;100539.22;5062678;28;20025;-63
2023/07/29 03:35:50;;;;;;;17.42;6.30;;;;;;;15.48;100.00;100538.38;5061371;28;20029;-63
2023/07/29 03:38:15;;;;;;;18.75;6.90;;;;;;;15.43;100.00;100543.78;5064076;28;20032;-63
2023/07/29 03:40:41;;;;;;;16.25;5.85;;;;;;;15.43;100.00;100548.22;5060476;28;20547;-63
2023/07/29 03:43:07;;;;;;;18.92;6.53;;;;;;;15.42;100.00;100549.13;5063529;28;20044;-63
2023/07/29 03:45:33;;;;;;;18.17;6.38;;;;;;;15.36;100.00;100541.28;5061469;28;20391;-66
2023/07/29 03:47:59;;;;;;;17.08;5.95;;;;;;;15.30;100.00;100542.28;5062624;28;20064;-64
2023/07/29 03:50:25;;;;;;;18.45;6.30;;;;;;;15.28;100.00;100552.09;5062882;28;20075;-63
2023/07/29 03:52:50;;;;;;;19.63;6.57;;;;;;;15.21;100.00;100550.44;5065193;28;20025;-66
2023/07/29 03:55:16;;;;;;;18.85;6.35;;;;;;;15.18;100.00;100534.53;5067238;28;20032;-64
2023/07/29 03:57:41;;;;;;;17.63;6.47;;;;;;;15.20;100.00;100517.59;5064047;28;20024;-63
2023/07/29 04:00:07;;;;;;;18.33;6.60;;;;;;;15.22;100.00;100517.56;5067168;28;20039;-64
2023/07/29 04:02:32;;;;;;;18.52;6.53;;;;;;;15.23;100.00;100504.25;5064712;28;20047;-63
2023/07/29 04:04:57;;;;;;;17.77;6.30;;;;;;;15.27;100.00;100503.25;5065832;28;20037;-63
2023/07/29 04:07:23;;;;;;;18.30;6.60;;;;;;;15.28;100.00;100507.69;5064863;28;20135;-63
2023/07/29 04:09:49;;;;;;;17.48;6.45;;;;;;;15.27;100.00;100499.72;5064427;28;20112;-63
2023/07/29 04:12:14;;;;;;;17.92;6.25;;;;;;;15.29;100.00;100501.47;5067421;28;20024;-62
2023/07/29 04:14:40;;;;;;;19.05;6.63;;;;;;;15.28;100.00;100489.03;5059738;28;20029;-63
2023/07/29 04:17:07;;;;;;;18.70;6.57;;;;;;;15.30;100.00;100497.91;5066531;28;20416;-63
2023/07/29 04:19:32;;;;;;;18.25;6.95;;;;;;;15.27;100.00;100511.25;5064712;28;20020;-63
2023/07/29 04:21:57;;;;;;;17.50;6.10;;;;;;;15.28;100.00;100520.13;5065646;28;20025;-63
2023/07/29 04:24:23;;;;;;;17.95;6.18;;;;;;;15.28;100.00;100538.78;5065781;28;20035;-64
2023/07/29 04:26:49;;;;;;;17.83;6.20;;;;;;;15.28;100.00;100552.09;5064095;28;20025;-66
2023/07/29 04:29:14;;;;;;;18.08;6.45;;;;;;;15.31;100.00;100558.22;5066956;28;20033;-63
2023/07/29 04:31:40;;;;;;;17.80;6.50;;;;;;;15.30;100.00;100560.91;5059364;28;20037;-64
2023/07/29 04:34:05;;;;;;;18.27;6.50;;;;;;;15.36;100.00;100549.25;5066598;28;20071;-63
2023/07/29 04:36:31;;;;;;;17.60;6.22;;;;;;;15.39;100.00;100547.44;5064480;28;20033;-63
2023/07/29 04:38:56;;;;;;;17.67;5.60;;;;;;;15.43;100.00;100553.56;5064773;28;20030;-63
2023/07/29 04:41:21;;;;;;;17.42;5.70;;;;;;;15.45;100.00;100554.38;5064582;28;20056;-63
2023/07/29 04:43:47;;;;;;;16.58;5.50;;;;;;;15.46;100.00;100561.47;5063498;28;20104;-63
2023/07/29 04:46:12;;;;;;;17.90;5.50;;;;;;;15.48;100.00;100559.69;5066786;28;20491;-62
2023/07/29 04:48:38;;;;;;;16.83;5.32;;;;;;;15.50;100.00;100557.84;5063500;28;20071;-63
2023/07/29 04:51:03;;;;;;;17.15;5.40;;;;;;;15.51;100.00;100556.94;5065860;28;20037;-63
2023/07/29 04:53:28;;;;;;;15.60;5.10;;;;;;;15.49;100.00;100550.75;5064954;28;20032;-63
2023/07/29 04:55:54;;;;;;;15.73;5.40;;;;;;;15.52;100.00;100564.00;5064167;28;20060;-62
2023/07/29 04:58:19;;;;;;;14.93;5.15;;;;;;;15.56;100.00;100555.06;5065631;28;20032;-65
2023/07/29 05:00:47;;;;;;;13.57;4.90;;;;;;;15.55;100.00;100563.06;5062948;28;20123;-63
2023/07/29 05:03:12;;;;;;;15.38;5.00;;;;;;;15.56;100.00;100563.03;5058757;28;20021;-63
2023/07/29 05:05:37;;;;;;;16.00;5.00;;;;;;;15.58;100.00;100563.00;5065575;28;20044;-62
2023/07/29 05:08:04;;;;;;;14.88;4.70;;;;;;;15.59;100.00;100573.63;5064022;28;20517;-63
2023/07/29 05:10:29;;;;;;;16.42;5.10;;;;;;;15.67;100.00;100576.16;5064869;28;20064;-62
2023/07/29 05:12:54;;;;;;;14.13;4.53;;;;;;;15.69;100.00;100574.31;5064695;28;20036;-62
2023/07/29 05:15:20;;;;;;;14.57;4.55;;;;;;;15.71;100.00;100576.97;5063479;28;20027;-63
2023/07/29 05:17:45;;;;;;;14.55;4.68;;;;;;;15.75;100.00;100586.66;5065853;28;20028;-63
2023/07/29 05:20:11;;;;;;;13.23;4.40;;;;;;;15.80;100.00;100582.13;5062504;28;20468;-63
2023/07/29 05:22:37;;;;;;;14.20;4.25;;;;;;;15.83;100.00;100587.41;5065625;28;20032;-63
2023/07/29 05:25:02;;;;;;;13.23;4.28;;;;;;;15.86;100.00;100582.00;5063487;28;20031;-63
2023/07/29 05:27:28;;;;;;;14.10;4.43;;;;;;;15.85;100.00;100577.56;5064166;28;20037;-63
2023/07/29 05:29:53;;;;;;;15.32;4.38;;;;;;;15.83;100.00;100571.41;5064773;28;20074;-63
2023/07/29 05:32:18;;;;;;;14.00;4.40;;;;;;;15.79;100.00;100567.06;5062661;28;20071;-62
2023/07/29 05:34:44;;;;;;;11.85;4.38;;;;;;;15.79;100.00;100569.72;5066168;28;20111;-64
2023/07/29 05:37:10;;;;;;;12.15;4.15;;;;;;;15.78;100.00;100563.50;5062087;28;20056;-63
2023/07/29 05:39:35;;;;;;;13.73;4.28;;;;;;;15.82;100.00;100567.00;5064773;28;20025;-63
2023/07/29 05:42:02;;;;;;;13.32;4.30;;;;;;;15.85;100.00;100580.25;5063563;28;20100;-63
2023/07/29 05:44:28;;;;;;;14.52;4.10;;;;;;;15.91;100.00;100569.44;5063710;28;20031;-63
2023/07/29 05:46:53;;;;;;;12.60;4.20;;;;;;;15.95;100.00;100567.59;5063050;28;20029;-62
2023/07/29 05:49:18;;;;;;;12.65;4.00;;;;;;;16.00;100.00;100574.59;5062434;28;20078;-62
2023/07/29 05:51:44;;;;;;;12.30;4.18;;;;;;;16.04;100.00;100578.91;5065641;28;20060;-63
2023/07/29 05:54:09;;;;;;;15.75;4.70;;;;;;;16.16;100.00;100576.88;5061909;28;20033;-63
2023/07/29 05:56:34;;;;;;;14.55;4.57;;;;;;;16.23;100.00;100578.50;5064888;28;20052;-63
2023/07/29 05:59:00;;;;;;;14.00;4.30;;;;;;;16.27;100.00;100579.31;5063466;28;20093;-63
2023/07/29 06:01:26;;;;;;;16.23;4.80;;;;;;;16.27;100.00;100579.31;5062792;28;20049;-62
2023/07/29 06:03:51;;;;;;;12.93;4.50;;;;;;;16.35;100.00;100564.00;5064515;28;20368;-63
2023/07/29 06:06:16;;;;;;;13.57;4.72;;;;;;;16.51;100.00;100567.16;5061709;28;20147;-63
2023/07/29 06:08:42;;;;;;;14.52;4.45;;;;;;;16.62;100.00;100567.78;5065437;28;20036;-63
2023/07/29 06:11:07;;;;;;;14.23;4.35;;;;;;;16.73;100.00;100570.16;5062302;28;20025;-71
2023/07/29 06:13:32;;;;;;;14.73;4.60;;;;;;;16.80;100.00;100571.75;5062903;28;20028;-64
2023/07/29 06:15:58;;;;;;;15.23;4.50;;;;;;;16.90;100.00;100573.31;5063360;28;20074;-63
2023/07/29 06:18:24;;;;;;;12.68;4.30;;;;;;;17.05;100.00;100580.06;5062465;28;20047;-63
2023/07/29 06:20:50;;;;;;;14.50;4.68;;;;;;;17.06;100.00;100568.44;5064097;28;20036;-63
2023/07/29 06:23:15;;;;;;;15.38;4.68;;;;;;;16.93;100.00;100556.34;5060427;28;20025;-63
2023/07/29 06:25:40;;;;;;;14.00;4.57;;;;;;;16.86;100.00;100566.28;5063708;28;20356;-63
2023/07/29 06:28:06;;;;;;;15.30;4.90;;;;;;;16.80;100.00;100561.09;5062191;28;20029;-63
2023/07/29 06:30:31;;;;;;;13.82;4.78;;;;;;;16.76;100.00;100558.53;5063838;28;20120;-63
2023/07/29 06:32:56;;;;;;;15.50;5.20;;;;;;;16.74;100.00;100570.13;5063217;28;20017;-63
2023/07/29 06:35:22;;;;;;;16.55;5.07;;;;;;;16.76;100.00;100570.13;5062005;28;20128;-63
2023/07/29 06:37:47;;;;;;;16.23;4.72;;;;;;;16.79;100.00;100569.13;5064348;28;20024;-63
2023/07/29 06:40:12;;;;;;;16.55;5.20;;;;;;;16.86;100.00;100565.41;5060922;28;20056;-63
2023/07/29 06:42:38;;;;;;;15.20;5.20;;;;;;;16.89;100.00;100566.25;5064082;28;20048;-63
2023/07/29 06:45:05;;;;;;;14.95;4.78;;;;;;;16.98;100.00;100566.91;5062127;28;20085;-64
2023/07/29 06:47:30;;;;;;;16.00;5.25;;;;;;;16.97;100.00;100563.34;5062776;28;20029;-63
2023/07/29 06:49:56;;;;;;;14.70;4.60;;;;;;;17.00;100.00;100567.75;5063253;28;20055;-63
2023/07/29 06:52:21;;;;;;;15.63;4.82;;;;;;;17.10;100.00;100571.91;5060110;28;20086;-63
2023/07/29 06:54:46;;;;;;;15.90;4.70;;;;;;;17.20;100.00;100578.75;5064308;28;20036;-63
2023/07/29 06:57:11;;;;;;;15.15;4.85;;;;;;;17.37;100.00;100578.31;5061168;28;20040;-63
2023/07/29 06:59:37;;;;;;;14.57;4.50;;;;;;;17.47;100.00;100591.41;5063330;28;20033;-63
2023/07/29 07:02:02;;;;;;;14.57;4.50;;;;;;;17.68;100.00;100590.78;5061935;28;20489;-63
2023/07/29 07:04:28;;;;;;;13.60;4.20;;;;;;;18.06;100.00;100585.25;5062243;28;20440;-63
2023/07/29 07:06:53;;;;;;;12.70;4.00;;;;;;;18.34;100.00;100581.72;5062859;28;20400;-64
2023/07/29 07:09:19;;;;;;;12.05;3.80;;;;;;;18.38;100.00;100591.38;5060901;28;20538;-63
2023/07/29 07:11:44;;;;;;;14.88;3.92;;;;;;;18.39;100.00;100591.34;5064255;28;20034;-63
2023/07/29 07:14:10;;;;;;;13.27;4.10;;;;;;;18.35;100.00;100595.03;5060906;28;20108;-63
2023/07/29 07:16:36;;;;;;;12.70;3.80;;;;;;;18.44;100.00;100591.19;5063258;28;20030;-63
2023/07/29 07:19:02;;;;;;;13.23;3.92;;;;;;;18.49;100.00;100591.03;5062024;28;20111;-64
2023/07/29 07:21:28;;;;;;;13.38;3.83;;;;;;;18.50;100.00;100585.63;5062167;28;20697;-64
2023/07/29 07:23:53;;;;;;;13.25;3.70;;;;;;;18.64;100.00;100595.91;5063000;28;20504;-63
2023/07/29 07:26:18;;;;;;;11.63;3.67;;;;;;;18.69;100.00;100593.91;5064895;28;20468;-69
2023/07/29 07:28:44;;;;;;;12.27;3.90;;;;;;;18.75;100.00;100596.38;5067898;28;20455;-63
2023/07/29 07:31:09;;;;;;;13.05;3.72;;;;;;;18.85;100.00;100598.78;5065051;28;20045;-63
2023/07/29 07:33:35;;;;;;;15.02;3.90;;;;;;;18.78;100.00;100598.09;5065854;28;20061;-63
2023/07/29 07:36:00;;;;;;;10.63;3.42;;;;;;;18.66;100.00;100609.22;5065824;28;20106;-63
2023/07/29 07:38:25;;;;;;;12.35;3.60;;;;;;;18.59;100.00;100614.75;5065844;28;20428;-63
2023/07/29 07:40:55;;;;;;;11.15;3.50;;;;;;;18.63;100.00;100607.50;5067082;28;20040;-63
2023/07/29 07:43:21;;;;;;;8.95;3.20;;;;;;;18.78;100.00;100612.34;5064857;28;20094;-63
2023/07/29 07:45:46;;;;;;;12.48;3.55;;;;;;;18.77;100.00;100615.06;5068019;28;20025;-63
2023/07/29 07:48:12;;;;;;;11.02;3.45;;;;;;;18.86;100.00;100625.53;5062938;28;20380;-66
2023/07/29 07:50:38;;;;;;;10.68;3.40;;;;;;;18.90;100.00;100618.25;5067083;28;20032;-63
2023/07/29 07:53:04;;;;;;;10.48;3.38;;;;;;;19.13;100.00;100631.75;5065339;28;20023;-63
2023/07/29 07:55:29;;;;;;;11.98;3.50;;;;;;;19.20;100.00;100621.69;5065792;28;20061;-63
2023/07/29 07:57:55;;;;;;;10.57;3.30;;;;;;;19.23;100.00;100620.72;5066388;28;20483;-63
2023/07/29 08:00:20;;;;;;;11.07;3.47;;;;;;;19.41;100.00;100611.13;5063338;28;20434;-63
2023/07/29 08:02:45;;;;;;;9.57;3.35;;;;;;;19.64;100.00;100611.19;5067464;28;20494;-63
2023/07/29 08:05:11;;;;;;;10.32;3.17;;;;;;;19.77;100.00;100605.34;5064280;28;20037;-63
2023/07/29 08:07:36;;;;;;;7.65;2.90;;;;;;;19.90;100.00;100605.78;5066493;28;20051;-64
2023/07/29 08:10:02;;;;;;;6.63;2.90;;;;;;;19.99;100.00;100603.63;5065270;28;20077;-63
2023/07/29 08:12:27;;;;;;;7.78;3.00;;;;;;;20.03;100.00;100588.28;5065023;28;20059;-63
2023/07/29 08:14:53;;;;;;;6.88;2.80;;;;;;;20.04;100.00;100606.13;5065255;28;20039;-63
2023/07/29 08:17:18;;;;;;;8.02;2.75;;;;;;;20.06;100.00;100615.00;5064123;28;20468;-63
2023/07/29 08:19:44;;;;;;;10.25;3.00;;;;;;;19.95;100.00;100625.25;5067335;28;20431;-70
2023/07/29 08:22:09;;;;;;;9.50;3.03;;;;;;;19.88;100.00;100619.25;5062799;28;20024;-63
2023/07/29 08:24:34;;;;;;;7.05;2.80;;;;;;;19.80;100.00;100622.22;5066133;28;20029;-71
2023/07/29 08:27:00;;;;;;;5.88;2.60;;;;;;;19.71;100.00;100625.22;5065343;28;20028;-63
2023/07/29 08:29:25;;;;;;;8.25;2.80;;;;;;;19.60;100.00;100624.72;5064546;28;20107;-66
2023/07/29 08:31:51;;;;;;;7.38;2.90;;;;;;;19.45;100.00;100627.03;5066333;28;20040;-63
2023/07/29 08:34:17;;;;;;;9.30;2.80;;;;;;;19.36;100.00;100623.84;5063807;28;20387;-63
2023/07/29 08:36:42;;;;;;;8.27;2.78;;;;;;;19.40;100.00;100623.66;5058202;28;20112;-68
2023/07/29 08:39:08;;;;;;;8.00;2.70;;;;;;;19.44;100.00;100622.63;5065985;28;20028;-69
2023/07/29 08:41:49;;;;;;;7.45;2.80;;;;;;;19.40;100.00;100618.31;5064892;28;20126;-63
2023/07/29 08:44:23;;;;;;;8.80;2.80;;;;;;;19.30;100.00;100616.88;5059608;28;20079;-63
2023/07/29 08:46:49;;;;;;;6.60;2.80;;;;;;;19.35;100.00;100617.56;5060028;28;20028;-63
2023/07/29 08:49:18;;;;;;;6.80;2.60;;;;;;;19.58;100.00;100607.84;5066478;28;20020;-67
2023/07/29 08:51:46;;;;;;;7.57;2.70;;;;;;;19.97;100.00;100607.31;5059362;28;20549;-64
2023/07/29 08:54:12;;;;;;;7.63;2.75;;;;;;;20.51;100.00;100603.34;5066122;28;20039;-70
2023/07/29 08:56:38;;;;;;;7.47;2.60;;;;;;;20.72;100.00;100606.13;5063591;28;20037;-63
2023/07/29 08:59:04;;;;;;;8.52;2.67;;;;;;;20.68;100.00;100601.84;5065378;28;20032;-63
2023/07/29 09:01:30;;;;;;;6.30;2.70;;;;;;;20.61;100.00;100608.38;5064469;28;20032;-63
2023/07/29 09:03:56;;;;;;;6.68;2.58;;;;;;;20.65;100.00;100607.28;5063960;28;20090;-65
2023/07/29 09:06:23;;;;;;;5.30;2.33;;;;;;;20.65;100.00;100604.59;5065690;28;20052;-63
2023/07/29 09:08:50;;;;;;;5.78;2.67;;;;;;;20.82;100.00;100610.16;5062818;28;20464;-63
2023/07/29 09:11:17;;;;;;;6.65;2.60;;;;;;;20.94;100.00;100610.59;5066406;28;20471;-63
2023/07/29 09:13:42;;;;;;;5.78;2.60;;;;;;;21.06;100.00;100608.25;5062800;28;20036;-63
2023/07/29 09:16:09;;;;;;;7.63;2.70;;;;;;;21.28;100.00;100607.31;5065430;28;20032;-64
2023/07/29 09:18:34;;;;;;;6.07;2.45;;;;;;;21.35;100.00;100607.94;5063608;28;20455;-63
2023/07/29 09:21:03;;;;;;;7.85;2.40;;;;;;;21.45;100.00;100611.97;5064245;28;20029;-63
2023/07/29 09:23:28;;;;;;;5.85;2.42;;;;;;;21.38;100.00;100594.38;5064721;28;20390;-63
2023/07/29 09:26:03;;;;;;;6.68;2.50;;;;;;;21.31;100.00;100593.75;5063120;28;20021;-63
2023/07/29 09:28:34;;;;;;;7.53;2.65;;;;;;;21.34;100.00;100598.97;5064488;28;20020;-63
2023/07/29 09:31:00;;;;;;;6.80;2.47;;;;;;;21.41;100.00;100591.53;5064031;28;20082;-65
2023/07/29 09:33:26;;;;;;;4.38;2.40;;;;;;;21.57;100.00;100595.28;5063450;28;20111;-63
2023/07/29 09:35:51;;;;;;;7.70;2.70;;;;;;;21.98;100.00;100597.00;5062698;28;20053;-63
2023/07/29 09:38:17;;;;;;;6.43;2.55;;;;;;;21.94;100.00;100590.91;5065649;28;20379;-63
2023/07/29 09:40:44;;;;;;;6.35;2.55;;;;;;;22.13;100.00;100591.84;5062210;28;20123;-63
2023/07/29 09:43:10;;;;;;;6.43;2.60;;;;;;;22.16;100.00;100592.56;5065177;28;20033;-63
2023/07/29 09:45:37;;;;;;;5.97;2.70;;;;;;;21.99;100.00;100590.69;5063073;28;20395;-63
2023/07/29 09:48:09;;;;;;;5.13;2.35;;;;;;;21.69;100.00;100593.00;5063733;28;20118;-64
2023/07/29 09:50:34;;;;;;;7.22;2.60;;;;;;;21.62;100.00;100602.28;5063093;28;20048;-68
2023/07/29 09:53:00;;;;;;;7.75;2.70;;;;;;;21.53;100.00;100593.69;5063717;28;20110;-64
2023/07/29 09:55:28;;;;;;;9.93;3.00;;;;;;;21.23;100.00;100602.16;5064195;28;20028;-63
2023/07/29 09:58:00;;;;;;;7.18;2.70;;;;;;;21.02;100.00;100603.09;5062488;28;20028;-62
2023/07/29 10:00:27;;;;;;;8.23;2.70;;;;;;;20.95;100.00;100604.28;5064198;28;20036;-63
2023/07/29 10:02:53;;;;;;;5.85;2.70;;;;;;;20.76;100.00;100607.75;5062270;28;20029;-62
2023/07/29 10:05:18;;;;;;;6.22;2.53;;;;;;;20.55;100.00;100620.22;5065077;28;20027;-63
2023/07/29 10:07:46;;;;;;;6.55;2.70;;;;;;;20.63;100.00;100607.34;5061714;28;20052;-63
2023/07/29 10:10:12;;;;;;;7.32;2.50;;;;;;;21.30;100.00;100597.38;5064770;28;20024;-65
2023/07/29 10:12:42;;;;;;;7.50;2.55;;;;;;;22.04;100.00;100598.53;5062298;28;20388;-63
2023/07/29 10:15:08;;;;;;;7.32;2.63;;;;;;;23.33;100.00;100593.97;5064373;28;20021;-63
2023/07/29 10:17:38;;;;;;;5.43;2.40;;;;;;;24.57;100.00;100601.56;5062722;28;20032;-63
2023/07/29 10:20:05;;;;;;;8.15;2.70;;;;;;;24.10;100.00;100600.63;5062009;28;20468;-65
2023/07/29 10:22:37;;;;;;;6.78;2.60;;;;;;;23.62;100.00;100611.28;5063291;28;20036;-64
2023/07/29 10:25:04;;;;;;;;;;;;;;;23.78;100.00;100600.53;5063752;28;20116;-63
2023/07/29 10:27:35;;;;;;;6.22;2.53;;;;;;;23.54;100.00;100589.25;5063081;28;19948;-64
2023/07/29 10:30:02;;;;;;;6.15;2.42;;;;;;;23.50;100.00;100593.94;5062622;28;20021;-63
2023/07/29 10:32:30;;;;;;;7.43;2.63;;;;;;;23.75;100.00;100591.72;5063772;28;20479;-64
2023/07/29 10:34:55;;;;;;;5.38;2.47;;;;;;;23.62;100.00;100581.63;5053877;28;20025;-64
2023/07/29 10:37:23;;;;;;;4.95;2.60;;;;;;;23.97;100.00;100575.25;5056753;28;20048;-63
2023/07/29 10:39:53;;;;;;;6.45;2.65;;;;;;;23.47;100.00;100587.84;5055906;28;20531;-76
2023/07/29 10:42:19;;;;;;;5.53;2.50;;;;;;;23.78;100.00;100583.47;5057801;28;20056;-63
2023/07/29 10:44:53;;;;;;;8.13;2.80;;;;;;;25.43;100.00;100578.50;5051643;28;20094;-78
2023/07/29 10:47:24;;;;;;;5.22;2.58;;;;;;;25.39;95.63;100578.66;5060747;28;20029;-78
2023/07/29 10:49:59;;;;;;;8.30;2.63;;;;;;;24.45;100.00;100568.03;5051143;28;20028;-76
2023/07/29 10:52:33;;;;;;;5.60;2.50;;;;;;;23.97;100.00;100572.53;5054681;28;20557;-78
2023/07/29 10:54:59;;;;;;;6.40;2.70;;;;;;;23.81;100.00;100575.22;5057101;28;20028;-77
2023/07/29 10:57:32;;;;;;;7.70;2.70;;;;;;;23.35;100.00;100570.50;5055203;28;20108;-79
2023/07/29 10:59:58;;;;;;;7.57;2.70;;;;;;;22.95;100.00;100565.34;5056536;28;20020;-72
2023/07/29 11:02:30;;;;;;;7.18;2.72;;;;;;;22.72;100.00;100577.28;5055491;28;20028;-79
2023/07/29 11:04:56;;;;;;;7.47;3.00;;;;;;;22.39;100.00;100571.78;5054477;28;20078;-77
2023/07/29 11:07:30;;;;;;;7.10;2.70;;;;;;;22.20;100.00;100569.09;5054987;28;20044;-75
2023/07/29 11:10:01;;;;;;;9.45;2.90;;;;;;;21.98;100.00;100577.31;5055115;28;20095;-78